createdAt,value
2022-12-05T00:00:17.383Z,1.65
2022-12-05T00:02:48.763Z,1.42
2022-12-05T00:08:47.063Z,1.25
2022-12-05T00:11:20.008Z,1.63
2022-12-05T00:13:49.449Z,1.58
2022-12-05T00:16:48.053Z,1.40
2022-12-05T00:19:46.031Z,1.30
2022-12-05T00:22:47.390Z,1.40
2022-12-05T00:34:52.141Z,1.67
2022-12-05T00:37:21.002Z,1.10
2022-12-05T00:46:46.909Z,1.50
2022-12-05T00:52:08.832Z,1.30
2022-12-05T00:54:48.264Z,1.20
2022-12-05T01:03:05.304Z,1.02
2022-12-05T01:05:49.238Z,1.10
2022-12-05T01:13:58.701Z,1.48
2022-12-05T01:19:49.862Z,1.35
2022-12-05T01:27:47.151Z,1.45
2022-12-05T01:35:59.693Z,1.52
2022-12-05T01:38:52.688Z,1.35
2022-12-05T01:41:50.734Z,1.85
2022-12-05T01:44:48.287Z,1.67
2022-12-05T01:47:51.817Z,1.83
2022-12-05T01:50:46.563Z,1.98
2022-12-05T01:53:46.789Z,1.80
2022-12-05T01:56:45.923Z,2.25
2022-12-05T02:02:52.694Z,1.70
2022-12-05T02:05:33.489Z,1.73
2022-12-05T02:11:51.562Z,1.52
2022-12-05T02:14:46.223Z,1.58
2022-12-05T02:21:47.845Z,1.63
2022-12-05T02:24:53.007Z,1.60
2022-12-05T02:27:58.662Z,1.92
2022-12-05T02:30:53.081Z,2.53
2022-12-05T02:33:46.086Z,1.85
2022-12-05T02:37:16.859Z,1.67
2022-12-05T02:39:54.077Z,2.00
2022-12-05T02:42:58.585Z,1.70
2022-12-05T02:46:16.221Z,1.70
2022-12-05T02:48:49.931Z,1.70
2022-12-05T02:51:48.100Z,1.50
2022-12-05T03:00:18.802Z,2.22
2022-12-05T03:02:49.554Z,2.13
2022-12-05T03:05:52.304Z,1.65
2022-12-05T03:08:47.003Z,1.60
2022-12-05T03:11:18.485Z,1.40
2022-12-05T03:16:51.686Z,2.63
2022-12-05T03:26:02.543Z,4.05
2022-12-05T03:32:51.457Z,2.53
2022-12-05T03:35:56.726Z,2.50
2022-12-05T03:38:49.230Z,2.72
2022-12-05T03:41:51.329Z,2.90
2022-12-05T03:44:46.103Z,1.77
2022-12-05T03:48:07.973Z,1.33
2022-12-05T03:50:50.064Z,2.05
2022-12-05T03:53:47.924Z,1.25
2022-12-05T03:56:52.301Z,2.25
2022-12-05T03:59:47.311Z,1.80
2022-12-05T04:02:48.517Z,2.22
2022-12-05T04:05:47.775Z,2.40
2022-12-05T04:08:46.881Z,2.25
2022-12-05T04:11:22.537Z,2.97
2022-12-05T04:13:55.663Z,2.72
2022-12-05T04:17:16.367Z,4.28
2022-12-05T04:20:17.985Z,3.42
2022-12-05T04:22:50.026Z,3.03
2022-12-05T04:25:45.859Z,2.72
2022-12-05T04:28:34.025Z,2.80
2022-12-05T04:34:47.442Z,2.45
2022-12-05T04:40:52.896Z,2.58
2022-12-05T04:43:23.675Z,2.85
2022-12-05T04:45:53.955Z,2.78
2022-12-05T04:51:47.954Z,2.58
2022-12-05T04:54:46.647Z,2.60
2022-12-05T04:57:23.586Z,2.13
2022-12-05T04:59:52.385Z,2.95
2022-12-05T05:02:47.291Z,2.45
2022-12-05T05:05:19.665Z,1.90
2022-12-05T05:07:55.847Z,2.47
2022-12-05T05:11:17.646Z,3.20
2022-12-05T05:14:16.480Z,4.07
2022-12-05T05:17:18.690Z,3.42
2022-12-05T05:19:47.800Z,2.92
2022-12-05T05:22:21.136Z,3.35
2022-12-05T05:25:18.003Z,2.35
2022-12-05T05:32:18.267Z,2.92
2022-12-05T05:49:17.079Z,2.80
2022-12-05T05:52:16.212Z,2.65
2022-12-05T05:55:16.485Z,3.25
2022-12-05T05:58:17.131Z,2.47
2022-12-05T06:06:23.987Z,2.55
2022-12-05T06:09:25.851Z,2.47
2022-12-05T06:14:49.813Z,2.33
2022-12-05T06:17:18.765Z,2.53
2022-12-05T06:22:46.270Z,2.90
2022-12-05T06:25:17.947Z,2.58
2022-12-05T06:27:46.283Z,2.13
2022-12-05T06:30:17.591Z,2.75
2022-12-05T06:36:46.301Z,1.70
2022-12-05T06:39:19.990Z,2.13
2022-12-05T06:47:47.646Z,1.30
2022-12-05T06:50:17.856Z,1.52
2022-12-05T06:52:46.745Z,1.67
2022-12-05T06:55:16.845Z,1.55
2022-12-05T07:01:17.135Z,1.63
2022-12-05T07:04:16.346Z,1.35
2022-12-05T07:09:55.411Z,1.50
2022-12-05T07:12:25.005Z,1.27
2022-12-05T07:15:18.024Z,1.30
2022-12-05T07:17:46.432Z,1.17
2022-12-05T07:20:18.894Z,1.50
2022-12-05T07:22:47.369Z,1.77
2022-12-05T07:25:21.044Z,1.30
2022-12-05T07:28:16.897Z,1.55
2022-12-05T07:33:45.913Z,1.38
2022-12-05T07:36:20.511Z,1.23
2022-12-05T07:44:46.677Z,2.08
2022-12-05T07:47:16.909Z,1.30
2022-12-05T07:49:48.479Z,1.30
2022-12-05T07:52:16.758Z,1.70
2022-12-05T07:54:47.883Z,2.00
2022-12-05T07:57:16.272Z,1.33
2022-12-05T07:59:47.564Z,1.42
2022-12-05T08:02:16.028Z,1.33
2022-12-05T08:04:47.492Z,1.13
2022-12-05T08:09:46.945Z,1.75
2022-12-05T08:12:18.035Z,1.50
2022-12-05T08:14:46.339Z,1.38
2022-12-05T08:17:17.474Z,1.40
2022-12-05T08:19:45.825Z,1.50
2022-12-05T08:22:17.266Z,2.17
2022-12-05T08:27:16.522Z,1.38
2022-12-05T08:29:47.898Z,1.60
2022-12-05T08:34:47.404Z,1.50
2022-12-05T08:37:15.914Z,1.45
2022-12-05T08:39:47.009Z,1.63
2022-12-05T08:42:18.119Z,1.88
2022-12-05T08:44:46.410Z,2.17
2022-12-05T08:47:17.280Z,1.75
2022-12-05T08:49:45.527Z,2.15
2022-12-05T08:52:16.855Z,1.60
2022-12-05T08:54:48.155Z,1.77
2022-12-05T08:57:17.458Z,1.70
2022-12-05T08:59:45.675Z,1.58
2022-12-05T09:02:16.891Z,1.80
2022-12-05T09:07:46.436Z,1.77
2022-12-05T09:10:17.894Z,1.90
2022-12-05T09:15:17.497Z,2.00
2022-12-05T09:17:48.680Z,1.73
2022-12-05T09:20:16.907Z,1.45
2022-12-05T09:22:45.245Z,1.73
2022-12-05T09:25:46.237Z,1.25
2022-12-05T09:28:48.380Z,2.23
2022-12-05T09:34:46.011Z,1.40
2022-12-05T09:40:23.707Z,1.77
2022-12-05T09:43:46.365Z,2.08
2022-12-05T09:50:44.494Z,1.83
2022-12-05T09:53:47.113Z,1.38
2022-12-05T09:56:47.173Z,1.70
2022-12-05T09:59:46.962Z,1.55
2022-12-05T10:02:47.734Z,1.52
2022-12-05T10:05:47.456Z,1.40
2022-12-05T10:14:47.283Z,1.67
2022-12-05T10:24:18.236Z,2.05
2022-12-05T10:26:51.518Z,0.98
2022-12-05T10:29:51.494Z,2.25
2022-12-05T10:36:51.245Z,1.20
2022-12-05T10:39:48.200Z,1.48
2022-12-05T10:42:48.408Z,1.55
2022-12-05T10:45:46.762Z,1.60
2022-12-05T10:48:46.073Z,1.83
2022-12-05T10:51:46.191Z,1.70
2022-12-05T10:54:52.601Z,1.52
2022-12-05T10:57:28.806Z,1.35
2022-12-05T11:03:45.031Z,1.55
2022-12-05T11:06:49.789Z,1.70
2022-12-05T11:09:51.542Z,1.88
2022-12-05T11:15:53.741Z,1.75
2022-12-05T11:21:47.131Z,1.92
2022-12-05T11:24:46.091Z,1.60
2022-12-05T11:30:28.301Z,1.10
2022-12-05T11:33:43.771Z,1.40
2022-12-05T11:36:49.450Z,1.42
2022-12-05T11:39:43.412Z,1.52
2022-12-05T11:43:14.187Z,1.40
2022-12-05T11:45:51.440Z,1.90
2022-12-05T11:48:43.792Z,1.73
2022-12-05T11:58:13.326Z,2.10
2022-12-05T12:04:47.802Z,1.45
2022-12-05T12:07:43.808Z,1.25
2022-12-05T12:10:53.443Z,1.70
2022-12-05T12:13:46.275Z,1.48
2022-12-05T12:16:51.214Z,1.35
2022-12-05T12:19:44.127Z,1.65
2022-12-05T12:22:46.007Z,1.17
2022-12-05T12:31:13.983Z,1.77
2022-12-05T12:37:55.082Z,1.45
2022-12-05T12:41:14.443Z,1.83
2022-12-05T12:44:44.812Z,2.60
2022-12-05T12:47:31.170Z,1.20
2022-12-05T12:50:43.999Z,1.45
2022-12-05T12:53:49.442Z,0.95
2022-12-05T12:56:48.922Z,1.00
2022-12-05T12:59:45.182Z,1.52
2022-12-05T13:02:48.023Z,1.20
2022-12-05T13:05:49.397Z,1.75
2022-12-05T13:08:51.789Z,1.75
2022-12-05T13:11:46.743Z,1.80
2022-12-05T13:17:42.834Z,1.85
2022-12-05T13:20:23.858Z,2.25
2022-12-05T13:22:54.269Z,2.17
2022-12-05T13:25:52.904Z,2.15
2022-12-05T13:28:57.788Z,1.75
2022-12-05T13:31:46.324Z,1.48
2022-12-05T13:40:53.930Z,1.88
2022-12-05T13:49:49.097Z,1.50
2022-12-05T13:55:36.902Z,2.03
2022-12-05T14:01:56.725Z,1.77
2022-12-05T14:08:57.426Z,1.70
2022-12-05T14:11:44.333Z,2.45
2022-12-05T14:14:58.683Z,2.10
2022-12-05T14:24:47.987Z,2.30
2022-12-05T14:31:13.093Z,1.73
2022-12-05T14:34:46.304Z,2.00
2022-12-05T14:48:51.894Z,2.13
2022-12-05T14:52:03.850Z,2.08
2022-12-05T15:01:49.718Z,2.50
2022-12-05T15:05:13.534Z,1.92
2022-12-05T15:08:16.431Z,1.92
2022-12-05T15:30:14.451Z,2.25
2022-12-05T15:33:17.061Z,2.15
2022-12-05T15:36:12.994Z,1.90
2022-12-05T15:39:14.904Z,2.20
2022-12-05T15:45:15.553Z,1.77
2022-12-05T15:51:13.574Z,3.75
2022-12-05T15:54:12.794Z,2.60
2022-12-05T15:57:14.095Z,2.53
2022-12-05T16:00:18.366Z,1.70
2022-12-05T16:03:13.900Z,2.33
2022-12-05T16:06:14.443Z,2.10
2022-12-05T16:12:43.783Z,2.20
2022-12-05T16:15:14.796Z,3.72
2022-12-05T16:18:16.654Z,1.75
2022-12-05T16:24:21.600Z,2.13
2022-12-05T16:27:37.783Z,2.22
2022-12-05T16:30:13.922Z,2.40
2022-12-05T16:38:47.462Z,2.05
2022-12-05T16:42:12.807Z,1.98
2022-12-05T16:45:14.829Z,2.00
2022-12-05T16:51:11.819Z,2.80
2022-12-05T16:54:14.300Z,2.30
2022-12-05T16:56:43.270Z,1.52
2022-12-05T17:00:27.995Z,2.03
2022-12-05T17:03:33.986Z,1.95
2022-12-05T17:06:15.919Z,1.52
2022-12-05T17:11:31.709Z,1.50
2022-12-05T17:15:11.966Z,2.25
2022-12-05T17:17:42.220Z,2.17
2022-12-05T17:20:14.676Z,1.85
2022-12-05T17:23:16.794Z,1.83
2022-12-05T17:26:14.284Z,1.50
2022-12-05T17:28:42.775Z,1.67
2022-12-05T17:31:16.087Z,2.95
2022-12-05T17:47:12.934Z,1.45
2022-12-05T17:53:18.186Z,1.20
2022-12-05T17:56:14.128Z,1.42
2022-12-05T18:09:14.730Z,0.77
2022-12-05T18:23:20.568Z,0.88
2022-12-05T18:26:16.129Z,1.27
2022-12-05T18:29:11.910Z,1.10
2022-12-05T18:38:14.828Z,1.08
2022-12-05T18:40:43.348Z,1.38
2022-12-05T18:43:17.662Z,1.40
2022-12-05T18:46:13.552Z,1.10
2022-12-05T18:49:18.391Z,1.05
2022-12-05T18:52:12.640Z,1.00
2022-12-05T18:55:20.878Z,1.20
2022-12-05T18:58:42.878Z,1.25
2022-12-05T19:01:18.725Z,1.60
2022-12-05T19:15:14.129Z,0.93
2022-12-05T19:21:15.995Z,1.33
2022-12-05T19:23:46.882Z,1.50
2022-12-05T19:29:12.853Z,1.40
2022-12-05T19:34:26.273Z,1.30
2022-12-05T19:37:13.046Z,1.50
2022-12-05T19:42:43.079Z,1.20
2022-12-05T19:45:17.871Z,1.67
2022-12-05T19:51:14.049Z,1.20
2022-12-05T19:56:37.786Z,1.85
2022-12-05T19:59:19.487Z,1.50
2022-12-05T20:02:12.554Z,1.58
2022-12-05T20:07:35.867Z,1.00
2022-12-05T20:10:18.193Z,1.50
2022-12-05T20:13:44.791Z,1.05
2022-12-05T20:15:45.015Z,0.90
2022-12-05T20:18:19.790Z,0.90
2022-12-05T20:21:17.223Z,0.90
2022-12-05T20:23:46.197Z,1.63
2022-12-05T20:26:44.738Z,1.75
2022-12-05T20:29:19.179Z,2.60
2022-12-05T20:32:13.390Z,2.72
2022-12-05T20:36:19.816Z,1.60
2022-12-05T20:37:44.375Z,2.28
2022-12-05T20:40:15.722Z,1.88
2022-12-05T20:42:46.833Z,1.73
2022-12-05T20:47:46.321Z,1.20
2022-12-05T20:50:15.708Z,1.05
2022-12-05T20:52:47.040Z,1.13
2022-12-05T20:55:15.567Z,1.00
2022-12-05T20:57:43.799Z,1.05
2022-12-05T21:00:15.189Z,1.00
2022-12-05T21:02:43.486Z,1.23
2022-12-05T21:05:14.897Z,1.23
2022-12-05T21:07:46.971Z,1.63
2022-12-05T21:10:15.260Z,1.13
2022-12-05T21:12:43.693Z,1.15
2022-12-05T21:17:44.879Z,1.15
2022-12-05T21:20:16.126Z,1.05
2022-12-05T21:25:15.444Z,0.85
2022-12-05T21:27:46.711Z,0.82
2022-12-05T21:32:45.970Z,1.00
2022-12-05T21:35:14.205Z,0.90
2022-12-05T21:37:47.088Z,1.23
2022-12-05T21:40:15.401Z,1.10
2022-12-05T21:42:44.147Z,0.90
2022-12-05T21:45:15.601Z,1.42
2022-12-05T21:47:47.153Z,1.27
2022-12-05T21:50:15.734Z,0.90
2022-12-05T21:52:47.101Z,0.80
2022-12-05T21:55:15.384Z,0.80
2022-12-05T21:57:43.638Z,1.10
2022-12-05T22:00:15.610Z,0.75
2022-12-05T22:02:46.901Z,0.80
2022-12-05T22:07:46.186Z,1.27
2022-12-05T22:10:14.626Z,0.70
2022-12-05T22:12:45.916Z,1.23
2022-12-05T22:18:15.491Z,0.82
2022-12-05T22:20:46.739Z,0.90
2022-12-05T22:23:16.888Z,0.73
2022-12-05T22:25:45.401Z,0.97
2022-12-05T22:28:16.638Z,0.90
2022-12-05T22:33:18.708Z,0.90
2022-12-05T22:38:49.500Z,1.10
2022-12-05T22:41:21.075Z,0.70
2022-12-05T22:43:55.201Z,0.50
2022-12-05T22:46:23.718Z,0.85
2022-12-05T22:48:52.590Z,0.88
2022-12-05T22:51:23.320Z,0.90
2022-12-05T22:53:56.183Z,0.93
2022-12-05T22:56:27.251Z,0.60
2022-12-05T22:59:15.327Z,1.17
2022-12-05T23:01:46.981Z,1.60
2022-12-05T23:04:21.366Z,1.00
2022-12-05T23:07:19.987Z,1.20
2022-12-05T23:13:18.201Z,0.93
2022-12-05T23:15:49.591Z,1.02
2022-12-05T23:18:18.460Z,0.80
2022-12-05T23:20:46.981Z,0.60
2022-12-05T23:23:18.833Z,0.63
2022-12-05T23:25:47.496Z,0.90
2022-12-05T23:28:15.872Z,1.25
2022-12-05T23:30:47.054Z,1.27
2022-12-05T23:39:45.404Z,0.88
2022-12-05T23:42:20.761Z,1.35
2022-12-05T23:45:14.199Z,1.60
2022-12-05T23:54:53.744Z,0.80
